createdAt,value
2017-12-08T00:00:57.818Z,91.75
2017-12-08T00:03:23.621Z,91.76
2017-12-08T00:05:49.404Z,91.84
2017-12-08T00:08:15.218Z,91.81
2017-12-08T00:10:41.032Z,91.71
2017-12-08T00:13:06.835Z,91.61
2017-12-08T00:15:32.795Z,91.50
2017-12-08T00:17:58.568Z,91.45
2017-12-08T00:20:25.181Z,91.52
2017-12-08T00:22:50.977Z,91.20
2017-12-08T00:25:16.767Z,91.41
2017-12-08T00:27:42.550Z,91.12
2017-12-08T00:30:08.355Z,91.11
2017-12-08T00:32:34.159Z,90.85
2017-12-08T00:34:59.950Z,91.22
2017-12-08T00:37:25.744Z,90.91
2017-12-08T00:39:51.547Z,90.93
2017-12-08T00:42:17.338Z,90.81
2017-12-08T00:44:43.118Z,90.79
2017-12-08T00:47:09.155Z,90.38
2017-12-08T00:49:34.964Z,90.50
2017-12-08T00:52:00.759Z,90.34
2017-12-08T00:54:26.551Z,90.53
2017-12-08T00:56:52.347Z,90.28
2017-12-08T00:59:18.145Z,90.03
2017-12-08T01:01:43.973Z,90.19
2017-12-08T01:04:09.767Z,90.06
2017-12-08T01:06:35.538Z,89.78
2017-12-08T01:09:01.345Z,89.87
2017-12-08T01:11:27.142Z,89.75
2017-12-08T01:13:52.926Z,89.77
2017-12-08T01:16:18.755Z,89.58
2017-12-08T01:18:44.559Z,89.56
2017-12-08T01:21:10.371Z,89.54
2017-12-08T01:23:36.178Z,89.62
2017-12-08T01:26:01.966Z,89.45
2017-12-08T01:28:27.761Z,89.57
2017-12-08T01:30:53.749Z,89.71
2017-12-08T01:33:19.567Z,89.44
2017-12-08T01:35:45.358Z,89.73
2017-12-08T01:38:11.184Z,89.81
2017-12-08T01:43:09.546Z,89.99
2017-12-08T01:45:35.672Z,90.09
2017-12-08T01:48:01.488Z,90.14
2017-12-08T01:50:27.283Z,90.24
2017-12-08T01:52:53.074Z,90.21
2017-12-08T01:55:18.867Z,90.21
2017-12-08T01:57:44.747Z,90.35
2017-12-08T02:00:10.575Z,90.53
2017-12-08T02:02:36.372Z,90.35
2017-12-08T02:05:02.176Z,90.36
2017-12-08T02:07:28.092Z,90.40
2017-12-08T02:09:53.880Z,90.33
2017-12-08T02:12:19.677Z,90.38
2017-12-08T02:14:45.479Z,90.50
2017-12-08T02:17:11.595Z,90.49
2017-12-08T02:19:37.393Z,90.46
2017-12-08T02:22:03.223Z,90.36
2017-12-08T02:24:29.052Z,90.39
2017-12-08T02:26:54.852Z,90.31
2017-12-08T02:29:20.677Z,90.48
2017-12-08T02:31:46.489Z,90.34
2017-12-08T02:34:12.294Z,90.08
2017-12-08T02:36:38.442Z,90.06
2017-12-08T02:39:04.244Z,90.18
2017-12-08T02:41:30.054Z,90.04
2017-12-08T02:43:56.217Z,89.96
2017-12-08T02:46:22.059Z,89.69
2017-12-08T02:48:47.886Z,89.65
2017-12-08T02:51:13.709Z,88.90
2017-12-08T02:53:39.518Z,89.53
2017-12-08T02:56:05.395Z,89.65
2017-12-08T02:58:31.219Z,89.55
2017-12-08T03:00:57.050Z,89.59
2017-12-08T03:03:22.894Z,89.58
2017-12-08T03:05:48.715Z,89.51
2017-12-08T03:08:14.526Z,89.30
2017-12-08T03:10:40.376Z,89.29
2017-12-08T03:13:06.191Z,89.42
2017-12-08T03:15:31.987Z,89.21
2017-12-08T03:17:58.125Z,88.98
2017-12-08T03:20:23.951Z,89.13
2017-12-08T03:22:49.772Z,89.07
2017-12-08T03:25:15.591Z,89.17
2017-12-08T03:27:41.388Z,89.00
2017-12-08T03:30:07.184Z,88.97
2017-12-08T03:32:33.021Z,89.05
2017-12-08T03:34:58.841Z,89.12
2017-12-08T03:37:24.708Z,89.22
2017-12-08T03:39:50.483Z,88.99
2017-12-08T03:42:16.301Z,89.12
2017-12-08T03:44:42.115Z,89.38
2017-12-08T03:47:08.314Z,89.48
2017-12-08T03:49:34.144Z,89.67
2017-12-08T03:51:59.955Z,89.67
2017-12-08T03:54:26.035Z,89.64
2017-12-08T03:56:51.841Z,89.58
2017-12-08T03:59:17.639Z,89.47
2017-12-08T04:01:43.461Z,89.19
2017-12-08T04:04:09.261Z,89.43
2017-12-08T04:06:35.101Z,89.31
2017-12-08T04:09:00.899Z,89.08
2017-12-08T04:11:26.691Z,89.04
2017-12-08T04:13:52.509Z,89.25
2017-12-08T04:16:18.303Z,89.20
2017-12-08T04:18:44.110Z,89.17
2017-12-08T04:21:10.184Z,89.17
2017-12-08T04:23:36.008Z,89.21
2017-12-08T04:26:01.817Z,89.28
2017-12-08T04:28:27.659Z,88.81
2017-12-08T04:30:53.456Z,89.12
2017-12-08T04:33:19.684Z,88.92
2017-12-08T04:35:45.483Z,88.64
2017-12-08T04:38:11.295Z,87.99
2017-12-08T04:40:37.441Z,87.76
2017-12-08T04:43:03.243Z,87.34
2017-12-08T04:45:29.054Z,87.43
2017-12-08T04:47:54.867Z,87.18
2017-12-08T04:50:20.671Z,87.36
2017-12-08T04:52:46.459Z,87.34
2017-12-08T04:55:12.401Z,87.45
2017-12-08T04:57:38.208Z,86.91
2017-12-08T05:00:04.015Z,86.80
2017-12-08T05:02:30.114Z,86.90
2017-12-08T05:04:55.932Z,86.53
2017-12-08T05:07:21.732Z,86.57
2017-12-08T05:09:47.559Z,86.37
2017-12-08T05:12:13.362Z,85.96
2017-12-08T05:14:39.175Z,86.12
2017-12-08T05:17:05.011Z,86.10
2017-12-08T05:19:30.837Z,86.02
2017-12-08T05:21:56.669Z,85.61
2017-12-08T05:24:22.518Z,85.84
2017-12-08T05:26:56.335Z,85.73
2017-12-08T05:37:54.367Z,85.62
2017-12-08T05:40:20.155Z,85.66
2017-12-08T05:42:45.957Z,85.80
2017-12-08T05:45:12.075Z,85.86
2017-12-08T05:47:37.863Z,85.43
2017-12-08T05:50:03.643Z,85.59
2017-12-08T05:52:29.445Z,85.98
2017-12-08T05:54:55.313Z,85.88
2017-12-08T05:57:21.125Z,85.52
2017-12-08T05:59:46.956Z,85.51
2017-12-08T06:02:12.763Z,85.42
2017-12-08T06:04:38.567Z,85.84
2017-12-08T06:07:04.367Z,85.40
2017-12-08T06:09:30.158Z,85.34
2017-12-08T06:11:55.951Z,85.74
2017-12-08T06:14:21.789Z,85.04
2017-12-08T06:16:47.595Z,85.51
2017-12-08T06:19:13.383Z,85.76
2017-12-08T06:21:39.236Z,85.98
2017-12-08T06:24:05.048Z,85.94
2017-12-08T06:26:30.856Z,86.17
2017-12-08T06:28:56.652Z,85.96
2017-12-08T06:31:22.451Z,85.95
2017-12-08T06:33:48.271Z,85.08
2017-12-08T06:36:14.076Z,84.41
2017-12-08T06:38:39.860Z,84.25
2017-12-08T06:41:05.695Z,84.86
2017-12-08T06:43:31.490Z,84.82
2017-12-08T06:45:57.279Z,85.00
2017-12-08T06:48:23.339Z,85.09
2017-12-08T06:50:49.144Z,85.36
2017-12-08T06:53:14.918Z,85.11
2017-12-08T06:55:40.724Z,85.49
2017-12-08T06:58:06.510Z,85.94
2017-12-08T07:00:32.299Z,86.29
2017-12-08T07:02:58.098Z,87.35
2017-12-08T07:05:23.892Z,88.57
2017-12-08T07:07:49.694Z,89.37
2017-12-08T07:10:15.520Z,90.47
2017-12-08T07:12:41.340Z,91.36
2017-12-08T07:15:07.269Z,91.62
2017-12-08T07:17:33.228Z,91.73
2017-12-08T07:19:59.026Z,91.91
2017-12-08T07:22:24.823Z,92.60
2017-12-08T07:24:50.672Z,92.97
2017-12-08T07:27:16.476Z,92.96
2017-12-08T07:29:42.373Z,93.16
2017-12-08T07:32:08.187Z,93.51
2017-12-08T07:34:33.998Z,93.73
2017-12-08T07:36:59.801Z,93.46
2017-12-08T07:39:25.618Z,93.80
2017-12-08T07:41:51.412Z,94.10
2017-12-08T07:44:17.210Z,94.10
2017-12-08T07:46:43.113Z,93.80
2017-12-08T07:49:09.154Z,94.39
2017-12-08T07:51:34.989Z,94.49
2017-12-08T07:54:00.955Z,94.39
2017-12-08T07:56:26.810Z,94.84
2017-12-08T07:58:52.800Z,94.69
2017-12-08T08:01:18.927Z,94.49
2017-12-08T08:03:44.744Z,94.43
2017-12-08T08:06:10.557Z,94.36
2017-12-08T08:08:37.407Z,94.65
2017-12-08T08:11:03.595Z,93.73
2017-12-08T08:13:29.691Z,93.96
2017-12-08T08:15:55.847Z,93.94
2017-12-08T08:18:22.014Z,94.18
2017-12-08T08:20:48.149Z,93.44
2017-12-08T08:23:14.322Z,94.20
2017-12-08T08:25:40.123Z,94.23
2017-12-08T08:28:05.992Z,94.26
2017-12-08T08:30:31.805Z,93.57
2017-12-08T08:32:57.638Z,94.08
2017-12-08T08:35:24.068Z,93.62
2017-12-08T08:37:49.866Z,93.46
2017-12-08T08:40:16.204Z,93.96
2017-12-08T08:42:42.066Z,93.65
2017-12-08T08:45:08.015Z,93.97
2017-12-08T08:47:33.815Z,94.28
2017-12-08T08:49:59.899Z,93.86
2017-12-08T08:52:25.696Z,93.98
2017-12-08T08:54:51.492Z,93.52
2017-12-08T08:57:17.794Z,93.65
2017-12-08T08:59:43.749Z,93.69
2017-12-08T09:02:10.746Z,93.12
2017-12-08T09:04:36.963Z,92.97
2017-12-08T09:07:02.997Z,92.85
2017-12-08T09:09:28.883Z,92.27
2017-12-08T09:11:54.696Z,92.53
2017-12-08T09:14:20.499Z,92.69
2017-12-08T09:16:46.563Z,92.13
2017-12-08T09:19:12.359Z,92.35
2017-12-08T09:21:38.195Z,91.15
2017-12-08T09:24:04.524Z,91.82
2017-12-08T09:26:30.319Z,91.94
2017-12-08T09:28:56.201Z,91.68
2017-12-08T09:31:22.388Z,92.44
2017-12-08T09:33:48.212Z,92.49
2017-12-08T09:36:14.007Z,92.58
2017-12-08T09:38:40.223Z,92.83
2017-12-08T09:41:06.287Z,93.15
2017-12-08T09:43:32.078Z,92.08
2017-12-08T09:45:58.220Z,92.85
2017-12-08T09:48:24.251Z,92.27
2017-12-08T09:50:50.082Z,92.66
2017-12-08T09:53:15.910Z,92.98
2017-12-08T09:55:41.686Z,93.13
2017-12-08T09:58:07.498Z,93.42
2017-12-08T10:00:33.331Z,93.58
2017-12-08T10:02:59.128Z,93.88
2017-12-08T10:05:24.914Z,93.32
2017-12-08T10:07:50.736Z,93.20
2017-12-08T10:10:16.538Z,93.63
2017-12-08T10:12:42.331Z,94.01
2017-12-08T10:15:08.139Z,94.12
2017-12-08T10:17:34.048Z,94.17
2017-12-08T10:19:59.847Z,94.33
2017-12-08T10:22:25.663Z,94.25
2017-12-08T10:24:51.465Z,94.21
2017-12-08T10:27:17.598Z,94.49
2017-12-08T10:29:43.419Z,94.41
2017-12-08T10:32:09.364Z,94.40
2017-12-08T10:34:35.156Z,94.53
2017-12-08T10:37:00.977Z,94.88
2017-12-08T10:39:26.776Z,94.74
2017-12-08T10:41:52.567Z,94.67
2017-12-08T10:44:19.260Z,94.48
2017-12-08T10:46:45.054Z,94.61
2017-12-08T10:49:10.839Z,94.57
2017-12-08T10:51:36.651Z,94.67
2017-12-08T10:54:02.462Z,94.46
2017-12-08T10:56:28.327Z,94.43
2017-12-08T10:58:54.151Z,94.70
2017-12-08T11:01:19.964Z,94.50
2017-12-08T11:03:45.764Z,94.72
2017-12-08T11:06:11.861Z,94.89
2017-12-08T11:08:37.662Z,94.39
2017-12-08T11:11:03.453Z,94.23
2017-12-08T11:13:30.291Z,94.09
2017-12-08T11:15:56.158Z,93.93
2017-12-08T11:18:22.146Z,93.90
2017-12-08T11:20:48.507Z,93.26
2017-12-08T11:23:14.318Z,93.35
2017-12-08T11:25:40.115Z,93.14
2017-12-08T11:28:05.944Z,93.65
2017-12-08T11:30:31.876Z,94.03
2017-12-08T11:32:57.686Z,94.38
2017-12-08T11:35:23.549Z,94.32
2017-12-08T11:37:49.348Z,94.29
2017-12-08T11:40:15.264Z,94.07
2017-12-08T11:42:41.146Z,94.28
2017-12-08T11:45:07.054Z,94.28
2017-12-08T11:47:33.391Z,94.31
2017-12-08T11:49:59.561Z,94.93
2017-12-08T11:52:25.347Z,94.76
2017-12-08T11:54:51.148Z,94.98
2017-12-08T11:57:17.171Z,95.18
2017-12-08T11:59:43.275Z,95.45
2017-12-08T12:02:09.173Z,95.74
2017-12-08T12:04:34.964Z,95.30
2017-12-08T12:07:00.739Z,95.44
2017-12-08T12:09:26.567Z,95.22
2017-12-08T12:11:52.351Z,95.15
2017-12-08T12:14:18.156Z,95.30
2017-12-08T12:16:44.202Z,95.31
2017-12-08T12:19:09.993Z,94.97
2017-12-08T12:21:35.775Z,95.15
2017-12-08T12:24:01.560Z,95.32
2017-12-08T12:26:27.354Z,95.20
2017-12-08T12:28:53.131Z,94.96
2017-12-08T12:31:19.096Z,95.19
2017-12-08T12:33:44.919Z,95.30
2017-12-08T12:36:10.702Z,95.46
2017-12-08T12:38:36.515Z,95.11
2017-12-08T12:41:02.302Z,95.58
2017-12-08T12:43:28.092Z,94.96
2017-12-08T12:45:53.898Z,95.16
2017-12-08T12:48:19.694Z,95.67
2017-12-08T12:50:45.486Z,95.41
2017-12-08T12:53:11.303Z,95.18
2017-12-08T12:55:37.113Z,95.19
2017-12-08T12:58:02.896Z,95.29
2017-12-08T13:00:28.711Z,95.17
2017-12-08T13:02:54.504Z,95.20
2017-12-08T13:05:20.299Z,95.34
2017-12-08T13:07:46.114Z,95.59
2017-12-08T13:10:11.908Z,95.37
2017-12-08T13:12:37.694Z,95.23
2017-12-08T13:15:03.507Z,95.18
2017-12-08T13:17:29.290Z,95.00
2017-12-08T13:19:55.087Z,95.06
2017-12-08T13:22:20.919Z,94.78
2017-12-08T13:24:46.704Z,94.45
2017-12-08T13:27:12.487Z,94.44
2017-12-08T13:29:38.306Z,94.59
2017-12-08T13:32:04.121Z,94.95
2017-12-08T13:34:29.917Z,94.95
2017-12-08T13:36:55.704Z,94.46
2017-12-08T13:39:21.544Z,94.52
2017-12-08T13:41:47.380Z,94.17
2017-12-08T13:44:13.174Z,94.75
2017-12-08T13:46:38.955Z,94.54
2017-12-08T13:49:04.796Z,94.47
2017-12-08T13:51:30.563Z,94.33
2017-12-08T13:54:08.930Z,94.69
2017-12-08T13:56:52.739Z,95.04
2017-12-08T13:59:18.684Z,94.66
2017-12-08T14:01:44.479Z,94.83
2017-12-08T14:04:10.490Z,94.66
2017-12-08T14:06:36.303Z,94.65
2017-12-08T14:09:02.151Z,94.81
2017-12-08T14:11:28.036Z,95.07
2017-12-08T14:13:53.904Z,95.10
2017-12-08T14:16:21.077Z,95.07
2017-12-08T14:18:46.895Z,95.37
2017-12-08T14:21:12.695Z,95.30
2017-12-08T14:23:38.489Z,95.21
2017-12-08T14:26:04.697Z,95.29
2017-12-08T14:28:30.494Z,95.17
2017-12-08T14:30:56.307Z,95.23
2017-12-08T14:33:22.150Z,95.07
2017-12-08T14:35:47.937Z,95.38
2017-12-08T14:38:13.740Z,95.21
2017-12-08T14:40:39.571Z,95.18
2017-12-08T14:43:05.370Z,95.26
2017-12-08T14:45:31.162Z,95.06
2017-12-08T14:47:57.599Z,95.07
2017-12-08T14:50:23.384Z,95.11
2017-12-08T14:52:49.579Z,94.96
2017-12-08T14:55:15.659Z,94.73
2017-12-08T14:57:41.462Z,94.72
2017-12-08T15:00:07.256Z,94.69
2017-12-08T15:02:33.533Z,94.53
2017-12-08T15:04:59.319Z,94.45
2017-12-08T15:07:25.140Z,94.39
2017-12-08T15:09:50.972Z,94.54
2017-12-08T15:12:17.059Z,94.17
2017-12-08T15:14:42.864Z,94.40
2017-12-08T15:17:09.326Z,93.10
2017-12-08T15:19:35.172Z,93.31
2017-12-08T15:22:01.181Z,92.55
2017-12-08T15:24:26.988Z,92.45
2017-12-08T15:26:53.359Z,92.23
2017-12-08T15:29:19.353Z,92.04
2017-12-08T15:31:45.304Z,92.09
2017-12-08T15:34:11.100Z,91.78
2017-12-08T15:36:37.007Z,92.04
2017-12-08T15:39:02.838Z,92.53
2017-12-08T15:41:28.630Z,92.96
2017-12-08T15:43:54.442Z,93.28
2017-12-08T15:46:20.246Z,93.36
2017-12-08T15:48:46.124Z,92.65
2017-12-08T15:51:11.973Z,91.47
2017-12-08T15:53:37.784Z,90.95
2017-12-08T15:56:03.970Z,91.29
2017-12-08T15:58:29.773Z,91.04
2017-12-08T16:00:55.564Z,91.06
2017-12-08T16:03:21.351Z,90.83
2017-12-08T16:05:47.155Z,91.33
2017-12-08T16:08:12.973Z,91.49
2017-12-08T16:10:38.784Z,91.52
2017-12-08T16:13:04.592Z,91.88
2017-12-08T16:15:30.727Z,92.21
2017-12-08T16:17:56.522Z,92.41
2017-12-08T16:20:22.310Z,92.46
2017-12-08T16:22:48.130Z,92.85
2017-12-08T16:25:13.941Z,93.05
2017-12-08T16:27:39.739Z,92.87
2017-12-08T16:30:05.561Z,92.93
2017-12-08T16:32:31.351Z,92.94
2017-12-08T16:34:57.146Z,93.10
2017-12-08T16:37:23.187Z,93.28
2017-12-08T16:39:49.505Z,93.18
2017-12-08T16:42:15.292Z,93.35
2017-12-08T16:44:41.111Z,93.38
2017-12-08T16:47:06.912Z,93.54
2017-12-08T16:49:32.695Z,93.37
2017-12-08T16:51:58.506Z,93.29
2017-12-08T16:54:24.307Z,93.40
2017-12-08T16:56:50.450Z,93.26
2017-12-08T16:59:16.243Z,93.48
2017-12-08T17:01:42.028Z,93.39
2017-12-08T17:04:07.835Z,93.38
2017-12-08T17:06:33.631Z,93.12
2017-12-08T17:08:59.441Z,93.40
2017-12-08T17:11:25.251Z,93.53
2017-12-08T17:13:51.035Z,93.29
2017-12-08T17:16:16.884Z,93.01
2017-12-08T17:18:42.702Z,92.96
2017-12-08T17:21:08.487Z,92.80
2017-12-08T17:23:34.286Z,92.72
2017-12-08T17:26:00.109Z,92.93
2017-12-08T17:28:25.912Z,92.69
2017-12-08T17:30:51.695Z,92.41
2017-12-08T17:33:17.510Z,92.51
2017-12-08T17:35:44.367Z,92.28
2017-12-08T17:38:10.151Z,92.55
2017-12-08T17:40:35.955Z,92.14
2017-12-08T17:43:01.735Z,92.04
2017-12-08T17:45:27.533Z,92.05
2017-12-08T17:47:53.565Z,91.90
2017-12-08T17:50:19.346Z,91.86
2017-12-08T17:52:45.169Z,91.70
2017-12-08T17:55:11.315Z,91.93
2017-12-08T17:57:37.119Z,91.65
2017-12-08T18:00:02.931Z,91.81
2017-12-08T18:02:28.746Z,91.74
2017-12-08T18:04:54.548Z,91.72
2017-12-08T18:07:20.359Z,91.87
2017-12-08T18:09:46.147Z,91.68
2017-12-08T18:12:11.960Z,91.86
2017-12-08T18:14:37.806Z,91.82
2017-12-08T18:17:03.638Z,92.00
2017-12-08T18:19:29.549Z,92.03
2017-12-08T18:21:55.718Z,91.72
2017-12-08T18:24:21.512Z,91.66
2017-12-08T18:26:47.312Z,91.80
2017-12-08T18:29:13.138Z,91.39
2017-12-08T18:31:38.947Z,91.34
2017-12-08T18:34:04.735Z,91.60
2017-12-08T18:36:30.760Z,91.25
2017-12-08T18:38:56.559Z,91.03
2017-12-08T18:41:22.375Z,90.99
2017-12-08T18:43:48.209Z,91.05
2017-12-08T18:46:13.998Z,90.70
2017-12-08T18:48:39.799Z,90.68
2017-12-08T18:51:05.637Z,90.98
2017-12-08T18:53:31.435Z,90.32
2017-12-08T18:55:57.244Z,90.45
2017-12-08T18:58:23.335Z,90.34
2017-12-08T19:00:49.145Z,90.45
2017-12-08T19:03:14.946Z,90.24
2017-12-08T19:05:40.775Z,90.23
2017-12-08T19:08:06.570Z,90.28
2017-12-08T19:10:32.363Z,90.50
2017-12-08T19:12:58.187Z,90.28
2017-12-08T19:15:23.971Z,89.92
2017-12-08T19:17:49.763Z,90.00
2017-12-08T19:20:15.586Z,89.90
2017-12-08T19:22:41.378Z,89.83
2017-12-08T19:25:07.183Z,89.93
2017-12-08T19:27:33.006Z,90.17
2017-12-08T19:29:58.808Z,90.20
2017-12-08T19:32:24.615Z,90.05
2017-12-08T19:34:50.478Z,90.19
2017-12-08T19:37:16.292Z,90.23
2017-12-08T19:39:42.097Z,90.09
2017-12-08T19:42:07.936Z,90.04
2017-12-08T19:44:33.758Z,89.97
2017-12-08T19:46:59.585Z,90.05
2017-12-08T19:49:25.400Z,89.93
2017-12-08T19:51:51.196Z,89.99
2017-12-08T19:54:17.071Z,89.80
2017-12-08T19:56:43.026Z,89.71
2017-12-08T19:59:08.825Z,89.77
2017-12-08T20:01:34.642Z,89.83
2017-12-08T20:04:00.447Z,89.85
2017-12-08T20:06:26.270Z,89.72
2017-12-08T20:08:52.109Z,89.79
2017-12-08T20:11:17.976Z,89.81
2017-12-08T20:13:43.784Z,89.83
2017-12-08T20:16:09.574Z,89.85
2017-12-08T20:18:35.387Z,89.80
2017-12-08T20:21:01.228Z,89.53
2017-12-08T20:23:27.082Z,89.79
2017-12-08T20:25:52.892Z,89.61
2017-12-08T20:28:18.721Z,89.08
2017-12-08T20:30:44.829Z,89.25
2017-12-08T20:33:10.644Z,88.97
2017-12-08T20:35:36.463Z,88.95
2017-12-08T20:38:02.320Z,88.48
2017-12-08T20:40:28.135Z,88.99
2017-12-08T20:42:53.924Z,89.03
2017-12-08T20:45:19.766Z,88.85
2017-12-08T20:47:45.610Z,89.36
2017-12-08T20:50:11.427Z,88.97
2017-12-08T20:52:37.392Z,89.44
2017-12-08T20:55:03.212Z,88.96
2017-12-08T20:57:29.031Z,88.79
2017-12-08T20:59:55.148Z,88.81
2017-12-08T21:02:20.992Z,89.69
2017-12-08T21:04:46.799Z,89.38
2017-12-08T21:07:12.602Z,90.34
2017-12-08T21:09:38.453Z,90.70
2017-12-08T21:12:04.304Z,90.88
2017-12-08T21:14:30.984Z,91.50
2017-12-08T21:16:56.799Z,92.00
2017-12-08T21:19:22.641Z,91.76
2017-12-08T21:21:48.472Z,92.29
2017-12-08T21:24:14.293Z,91.93
2017-12-08T21:26:40.143Z,92.04
2017-12-08T21:29:05.965Z,92.11
2017-12-08T21:31:31.783Z,92.05
2017-12-08T21:33:57.612Z,92.36
2017-12-08T21:36:23.606Z,91.79
2017-12-08T21:38:49.400Z,92.07
2017-12-08T21:41:15.194Z,91.42
2017-12-08T21:43:41.008Z,91.27
2017-12-08T21:46:06.830Z,91.64
2017-12-08T21:48:32.635Z,91.24
2017-12-08T21:50:58.437Z,90.98
2017-12-08T21:53:24.233Z,90.59
2017-12-08T21:55:50.027Z,90.71
2017-12-08T21:58:15.830Z,90.87
2017-12-08T22:00:41.648Z,90.71
2017-12-08T22:03:07.450Z,90.46
2017-12-08T22:05:33.259Z,90.38
2017-12-08T22:07:59.065Z,90.53
2017-12-08T22:10:24.876Z,90.39
2017-12-08T22:12:50.698Z,90.05
2017-12-08T22:15:16.762Z,90.09
2017-12-08T22:17:42.872Z,90.19
2017-12-08T22:20:08.683Z,90.48
2017-12-08T22:22:34.520Z,89.88
2017-12-08T22:25:00.331Z,90.01
2017-12-08T22:27:26.150Z,90.50
2017-12-08T22:29:51.947Z,90.50
2017-12-08T22:32:17.759Z,90.33
2017-12-08T22:34:43.559Z,90.54
2017-12-08T22:37:09.347Z,90.77
2017-12-08T22:39:35.168Z,90.57
2017-12-08T22:42:01.012Z,90.72
2017-12-08T22:44:26.838Z,90.43
2017-12-08T22:46:52.649Z,90.95
2017-12-08T22:49:18.479Z,90.75
2017-12-08T22:51:44.346Z,90.50
2017-12-08T22:54:10.444Z,90.47
2017-12-08T22:56:36.234Z,90.52
2017-12-08T22:59:02.241Z,90.88
2017-12-08T23:01:28.090Z,90.93
2017-12-08T23:03:53.877Z,91.10
2017-12-08T23:06:19.676Z,91.08
2017-12-08T23:08:46.310Z,90.82
2017-12-08T23:11:12.106Z,90.61
2017-12-08T23:13:37.895Z,90.90
2017-12-08T23:16:03.706Z,90.95
2017-12-08T23:18:29.523Z,91.11
2017-12-08T23:20:55.314Z,90.77
2017-12-08T23:23:21.212Z,90.93
2017-12-08T23:25:47.016Z,90.78
2017-12-08T23:28:12.789Z,90.88
2017-12-08T23:30:38.836Z,90.93
2017-12-08T23:33:04.646Z,90.79
2017-12-08T23:35:30.443Z,91.00
2017-12-08T23:37:56.242Z,90.91
2017-12-08T23:40:22.305Z,90.99
2017-12-08T23:42:48.443Z,90.64
2017-12-08T23:45:14.231Z,91.02
2017-12-08T23:47:40.014Z,91.29
2017-12-08T23:50:05.976Z,91.29
2017-12-08T23:52:31.758Z,91.23
2017-12-08T23:54:57.544Z,91.41
2017-12-08T23:57:23.347Z,91.37
2017-12-08T23:59:49.138Z,91.59
